Terminal Aerodrome Forecast
Issued by NWS

Home | Current Version | Previous Version | Text Only | Print | Product List | Glossary On
Versions: 1 2 3 4 5 6 7 8 9 10 11 12 13 14 15 16 17
000
FTAK31 PAFA 242323
TAFABT
TAF
PABT 242323Z 2500/2524 23012G18KT P6SM VCSH FEW023 BKN028 OVC040
     FM250600 20006KT P6SM VCSH SCT024 BKN050 OVC100
     FM251000 VRB03KT P6SM VCSH BKN024 OVC050
     FM252100 18004KT P6SM -SHRA SCT024 BKN035 OVC050=

USA.gov is the U.S. government's official web portal to all federal, state and local government web resources and services.